createdAt,value
2022-09-15T00:02:24.627Z,100.00
2022-09-15T00:04:51.122Z,100.00
2022-09-15T00:07:17.698Z,100.00
2022-09-15T00:09:44.098Z,100.00
2022-09-15T00:12:10.583Z,100.00
2022-09-15T00:14:37.085Z,100.00
2022-09-15T00:17:03.786Z,100.00
2022-09-15T00:19:30.253Z,100.00
2022-09-15T00:21:56.670Z,100.00
2022-09-15T00:24:23.092Z,100.00
2022-09-15T00:26:49.532Z,100.00
2022-09-15T00:29:16.055Z,100.00
2022-09-15T00:31:42.481Z,100.00
2022-09-15T00:34:12.422Z,100.00
2022-09-15T00:36:38.975Z,100.00
2022-09-15T00:39:05.831Z,100.00
2022-09-15T00:41:32.658Z,100.00
2022-09-15T00:44:07.040Z,100.00
2022-09-15T00:46:36.916Z,100.00
2022-09-15T00:49:18.764Z,100.00
2022-09-15T00:51:58.918Z,100.00
2022-09-15T00:54:38.584Z,100.00
2022-09-15T00:57:11.582Z,100.00
2022-09-15T00:59:41.423Z,100.00
2022-09-15T01:02:29.496Z,100.00
2022-09-15T01:04:58.784Z,100.00
2022-09-15T01:07:43.139Z,100.00
2022-09-15T01:13:50.360Z,100.00
2022-09-15T01:16:32.932Z,100.00
2022-09-15T01:19:37.393Z,100.00
2022-09-15T01:22:22.753Z,100.00
2022-09-15T01:25:23.422Z,100.00
2022-09-15T01:28:18.202Z,100.00
2022-09-15T01:30:59.383Z,100.00
2022-09-15T01:33:47.890Z,100.00
2022-09-15T01:36:19.348Z,100.00
2022-09-15T01:39:01.090Z,100.00
2022-09-15T01:41:29.518Z,100.00
2022-09-15T01:44:07.981Z,100.00
2022-09-15T01:46:46.861Z,100.00
2022-09-15T01:49:18.001Z,100.00
2022-09-15T01:51:48.294Z,100.00
2022-09-15T01:54:16.911Z,100.00
2022-09-15T01:56:43.916Z,100.00
2022-09-15T01:59:11.216Z,100.00
2022-09-15T02:02:10.084Z,100.00
2022-09-15T02:04:46.981Z,100.00
2022-09-15T02:07:20.642Z,100.00
2022-09-15T02:10:01.351Z,100.00
2022-09-15T02:12:39.238Z,100.00
2022-09-15T02:15:09.659Z,100.00
2022-09-15T02:17:45.663Z,100.00
2022-09-15T02:20:23.646Z,100.00
2022-09-15T02:22:55.665Z,100.00
2022-09-15T02:25:28.898Z,100.00
2022-09-15T02:28:00.312Z,100.00
2022-09-15T02:30:29.477Z,100.00
2022-09-15T02:32:59.285Z,100.00
2022-09-15T02:35:28.744Z,100.00
2022-09-15T02:37:56.268Z,100.00
2022-09-15T02:40:23.343Z,100.00
2022-09-15T02:42:55.943Z,100.00
2022-09-15T02:45:24.691Z,100.00
2022-09-15T02:47:51.425Z,100.00
2022-09-15T02:50:18.933Z,100.00
2022-09-15T02:52:45.387Z,100.00
2022-09-15T02:55:12.061Z,100.00
2022-09-15T02:57:38.662Z,100.00
2022-09-15T03:00:13.239Z,100.00
2022-09-15T03:02:41.143Z,100.00
2022-09-15T03:05:09.425Z,100.00
2022-09-15T03:07:37.574Z,100.00
2022-09-15T03:10:06.405Z,100.00
2022-09-15T03:12:38.107Z,100.00
2022-09-15T03:15:05.392Z,100.00
2022-09-15T03:17:35.617Z,100.00
2022-09-15T03:20:03.222Z,100.00
2022-09-15T03:22:29.700Z,100.00
2022-09-15T03:24:56.148Z,100.00
2022-09-15T03:27:23.271Z,100.00
2022-09-15T03:29:49.954Z,100.00
2022-09-15T03:32:16.411Z,100.00
2022-09-15T03:34:42.878Z,100.00
2022-09-15T03:37:09.358Z,100.00
2022-09-15T03:39:35.796Z,100.00
2022-09-15T03:42:02.254Z,100.00
2022-09-15T03:44:28.810Z,100.00
2022-09-15T03:46:55.251Z,100.00
2022-09-15T03:49:21.903Z,100.00
2022-09-15T03:51:48.358Z,100.00
2022-09-15T03:54:14.767Z,100.00
2022-09-15T03:56:41.201Z,100.00
2022-09-15T03:59:08.601Z,100.00
2022-09-15T04:01:35.889Z,100.00
2022-09-15T04:04:02.689Z,100.00
2022-09-15T04:06:29.181Z,100.00
2022-09-15T04:08:55.664Z,100.00
2022-09-15T04:11:22.698Z,100.00
2022-09-15T04:13:49.916Z,100.00
2022-09-15T04:16:19.041Z,100.00
2022-09-15T04:18:46.389Z,100.00
2022-09-15T04:21:16.715Z,100.00
2022-09-15T04:23:44.315Z,100.00
2022-09-15T04:26:33.024Z,100.00
2022-09-15T04:29:04.215Z,100.00
2022-09-15T04:31:31.742Z,100.00
2022-09-15T04:33:58.319Z,100.00
2022-09-15T04:36:28.207Z,100.00
2022-09-15T04:38:55.765Z,100.00
2022-09-15T04:41:22.685Z,100.00
2022-09-15T04:43:49.689Z,100.00
2022-09-15T04:46:18.201Z,100.00
2022-09-15T04:48:46.227Z,100.00
2022-09-15T04:51:17.008Z,100.00
2022-09-15T04:53:44.284Z,100.00
2022-09-15T04:56:13.525Z,100.00
2022-09-15T04:58:45.346Z,100.00
2022-09-15T05:01:13.421Z,100.00
2022-09-15T05:03:40.628Z,100.00
2022-09-15T05:06:08.898Z,100.00
2022-09-15T05:08:35.668Z,100.00
2022-09-15T05:11:04.209Z,100.00
2022-09-15T05:13:30.831Z,100.00
2022-09-15T05:16:03.940Z,100.00
2022-09-15T05:18:31.502Z,100.00
2022-09-15T05:20:59.760Z,100.00
2022-09-15T05:23:26.385Z,100.00
2022-09-15T05:25:57.709Z,100.00
2022-09-15T05:28:24.861Z,100.00
2022-09-15T05:30:52.372Z,100.00
2022-09-15T05:33:20.420Z,100.00
2022-09-15T05:35:54.166Z,100.00
2022-09-15T05:38:20.722Z,100.00
2022-09-15T05:40:47.435Z,100.00
2022-09-15T05:43:14.512Z,100.00
2022-09-15T05:45:43.904Z,100.00
2022-09-15T05:48:12.104Z,100.00
2022-09-15T05:50:39.613Z,100.00
2022-09-15T05:53:07.562Z,100.00
2022-09-15T05:55:38.030Z,100.00
2022-09-15T05:58:04.491Z,100.00
2022-09-15T06:00:30.952Z,100.00
2022-09-15T06:02:57.459Z,100.00
2022-09-15T06:05:23.953Z,100.00
2022-09-15T06:07:55.681Z,100.00
2022-09-15T06:10:24.916Z,100.00
2022-09-15T06:12:55.188Z,100.00
2022-09-15T06:15:22.955Z,100.00
2022-09-15T06:17:49.881Z,100.00
2022-09-15T06:20:16.847Z,100.00
2022-09-15T06:22:43.339Z,100.00
2022-09-15T06:25:10.920Z,100.00
2022-09-15T06:27:37.394Z,100.00
2022-09-15T06:30:04.492Z,100.00
2022-09-15T06:32:31.068Z,100.00
2022-09-15T06:34:57.746Z,100.00
2022-09-15T06:37:24.260Z,100.00
2022-09-15T06:39:51.141Z,100.00
2022-09-15T06:42:17.706Z,100.00
2022-09-15T06:44:44.123Z,100.00
2022-09-15T06:47:10.720Z,100.00
2022-09-15T06:49:37.224Z,100.00
2022-09-15T06:52:05.124Z,100.00
2022-09-15T06:54:31.649Z,100.00
2022-09-15T06:56:58.099Z,100.00
2022-09-15T06:59:24.626Z,100.00
2022-09-15T07:01:54.776Z,100.00
2022-09-15T07:04:23.046Z,100.00
2022-09-15T07:06:50.484Z,100.00
2022-09-15T07:09:17.108Z,100.00
2022-09-15T07:11:43.556Z,100.00
2022-09-15T07:14:11.152Z,100.00
2022-09-15T07:16:38.218Z,100.00
2022-09-15T07:19:05.952Z,100.00
2022-09-15T07:21:33.516Z,100.00
2022-09-15T07:24:02.687Z,100.00
2022-09-15T07:26:33.860Z,100.00
2022-09-15T07:29:02.389Z,100.00
2022-09-15T07:31:31.496Z,100.00
2022-09-15T07:34:01.530Z,100.00
2022-09-15T07:36:29.145Z,100.00
2022-09-15T07:38:55.610Z,100.00
2022-09-15T07:41:29.465Z,100.00
2022-09-15T07:43:58.540Z,100.00
2022-09-15T07:46:27.093Z,100.00
2022-09-15T07:48:56.470Z,100.00
2022-09-15T07:51:24.285Z,100.00
2022-09-15T07:53:52.122Z,100.00
2022-09-15T07:56:19.221Z,100.00
2022-09-15T07:58:46.744Z,100.00
2022-09-15T08:01:14.968Z,100.00
2022-09-15T08:03:48.761Z,100.00
2022-09-15T08:06:17.473Z,100.00
2022-09-15T08:08:44.236Z,100.00
2022-09-15T08:11:18.549Z,100.00
2022-09-15T08:13:49.658Z,100.00
2022-09-15T08:16:18.974Z,100.00
2022-09-15T08:18:45.970Z,100.00
2022-09-15T08:21:15.363Z,100.00
2022-09-15T08:23:41.955Z,100.00
2022-09-15T08:26:13.897Z,100.00
2022-09-15T08:28:41.471Z,100.00
2022-09-15T08:31:10.278Z,100.00
2022-09-15T08:33:38.223Z,100.00
2022-09-15T08:36:12.504Z,100.00
2022-09-15T08:38:40.818Z,100.00
2022-09-15T08:41:16.331Z,100.00
2022-09-15T08:43:53.334Z,100.00
2022-09-15T08:46:24.779Z,100.00
2022-09-15T08:49:02.742Z,100.00
2022-09-15T08:51:37.048Z,100.00
2022-09-15T08:54:08.991Z,100.00
2022-09-15T08:56:37.078Z,100.00
2022-09-15T08:59:04.253Z,100.00
2022-09-15T09:01:47.436Z,100.00
2022-09-15T09:04:30.692Z,100.00
2022-09-15T09:07:15.611Z,100.00
2022-09-15T09:10:17.401Z,100.00
2022-09-15T09:12:50.361Z,100.00
2022-09-15T09:15:33.313Z,99.28
2022-09-15T09:18:27.936Z,99.20
2022-09-15T09:21:18.185Z,97.85
2022-09-15T09:24:01.247Z,97.54
2022-09-15T09:26:31.312Z,96.91
2022-09-15T09:29:33.142Z,98.20
2022-09-15T09:32:01.357Z,96.63
2022-09-15T09:34:40.261Z,96.91
2022-09-15T09:37:17.275Z,94.93
2022-09-15T09:39:43.741Z,93.15
2022-09-15T09:42:15.839Z,94.59
2022-09-15T09:44:42.667Z,94.00
2022-09-15T09:47:09.309Z,93.07
2022-09-15T09:49:42.475Z,90.61
2022-09-15T09:52:09.234Z,90.72
2022-09-15T09:54:35.701Z,88.66
2022-09-15T09:57:14.152Z,87.27
2022-09-15T09:59:46.131Z,86.97
2022-09-15T10:02:13.060Z,87.12
2022-09-15T10:04:41.403Z,88.25
2022-09-15T10:07:08.857Z,90.36
2022-09-15T10:09:36.927Z,90.92
2022-09-15T10:12:05.682Z,89.30
2022-09-15T10:14:40.027Z,89.39
2022-09-15T10:17:10.735Z,87.35
2022-09-15T10:19:46.285Z,87.49
2022-09-15T10:22:24.955Z,87.05
2022-09-15T10:24:51.451Z,84.99
2022-09-15T10:27:19.658Z,84.14
2022-09-15T10:29:47.325Z,85.03
2022-09-15T10:32:25.451Z,83.36
2022-09-15T10:35:03.657Z,81.61
2022-09-15T10:37:33.065Z,81.65
2022-09-15T10:40:06.481Z,81.25
2022-09-15T10:42:44.595Z,78.93
2022-09-15T10:45:24.751Z,78.46
2022-09-15T10:47:54.198Z,79.28
2022-09-15T10:50:56.045Z,77.33
2022-09-15T10:53:47.930Z,73.31
2022-09-15T10:56:21.246Z,71.27
2022-09-15T10:59:24.999Z,70.98
2022-09-15T11:02:12.791Z,69.42
2022-09-15T11:05:05.739Z,68.84
2022-09-15T11:07:51.163Z,68.55
2022-09-15T11:10:35.342Z,66.18
2022-09-15T11:13:24.281Z,66.37
2022-09-15T11:16:24.532Z,67.70
2022-09-15T11:19:12.000Z,68.16
2022-09-15T11:21:43.158Z,66.88
2022-09-15T11:24:49.829Z,66.70
2022-09-15T11:27:33.335Z,65.62
2022-09-15T11:30:07.504Z,68.13
2022-09-15T11:32:47.653Z,69.00
2022-09-15T11:35:31.466Z,68.29
2022-09-15T11:38:13.046Z,66.48
2022-09-15T11:40:47.760Z,67.73
2022-09-15T11:43:30.358Z,67.94
2022-09-15T11:45:58.103Z,68.99
2022-09-15T11:48:33.953Z,72.75
2022-09-15T11:51:03.257Z,84.61
2022-09-15T11:53:42.920Z,96.48
2022-09-15T11:56:24.524Z,100.00
2022-09-15T11:59:03.758Z,100.00
2022-09-15T12:01:53.522Z,100.00
2022-09-15T12:04:27.721Z,100.00
2022-09-15T12:06:56.854Z,100.00
2022-09-15T12:09:23.385Z,100.00
2022-09-15T12:11:54.488Z,100.00
2022-09-15T12:14:37.304Z,100.00
2022-09-15T12:17:09.805Z,100.00
2022-09-15T12:19:54.328Z,100.00
2022-09-15T12:22:42.787Z,100.00
2022-09-15T12:25:20.997Z,100.00
2022-09-15T12:28:27.109Z,100.00
2022-09-15T12:31:23.455Z,100.00
2022-09-15T12:34:12.777Z,100.00
2022-09-15T12:36:45.693Z,98.75
2022-09-15T12:39:24.392Z,98.21
2022-09-15T12:41:56.128Z,97.19
2022-09-15T12:44:24.920Z,98.57
2022-09-15T12:46:54.294Z,99.49
2022-09-15T12:49:28.264Z,100.00
2022-09-15T12:51:55.305Z,100.00
2022-09-15T12:54:29.576Z,100.00
2022-09-15T12:56:57.404Z,100.00
2022-09-15T12:59:26.253Z,100.00
2022-09-15T13:01:54.360Z,100.00
2022-09-15T13:04:43.967Z,100.00
2022-09-15T13:07:16.530Z,100.00
2022-09-15T13:10:14.436Z,100.00
2022-09-15T13:12:48.352Z,100.00
2022-09-15T13:15:18.655Z,100.00
2022-09-15T13:17:46.657Z,100.00
2022-09-15T13:20:20.028Z,100.00
2022-09-15T13:22:51.556Z,100.00
2022-09-15T13:25:23.819Z,100.00
2022-09-15T13:27:55.066Z,100.00
2022-09-15T13:30:21.547Z,100.00
2022-09-15T13:33:01.780Z,100.00
2022-09-15T13:35:36.201Z,100.00
2022-09-15T13:38:40.280Z,100.00
2022-09-15T13:41:41.543Z,100.00
2022-09-15T13:44:17.887Z,100.00
2022-09-15T13:46:47.522Z,100.00
2022-09-15T13:49:35.754Z,100.00
2022-09-15T13:52:23.381Z,100.00
2022-09-15T13:55:10.299Z,100.00
2022-09-15T14:00:32.053Z,100.00
2022-09-15T14:03:23.886Z,100.00
2022-09-15T14:05:50.483Z,100.00
2022-09-15T14:08:27.031Z,100.00
2022-09-15T14:10:55.741Z,100.00
2022-09-15T14:13:24.963Z,100.00
2022-09-15T14:16:02.372Z,100.00
2022-09-15T14:18:29.900Z,100.00
2022-09-15T14:21:05.461Z,100.00
2022-09-15T14:23:32.714Z,100.00
2022-09-15T14:26:01.505Z,100.00
2022-09-15T14:28:33.985Z,100.00
2022-09-15T14:31:02.657Z,100.00
2022-09-15T14:33:37.909Z,100.00
2022-09-15T14:36:22.680Z,100.00
2022-09-15T14:39:10.698Z,100.00
2022-09-15T14:41:40.249Z,100.00
2022-09-15T14:47:22.991Z,100.00
2022-09-15T14:49:49.560Z,100.00
2022-09-15T14:52:24.389Z,100.00
2022-09-15T14:54:56.592Z,100.00
2022-09-15T14:57:30.659Z,100.00
2022-09-15T15:00:07.089Z,100.00
2022-09-15T15:02:36.591Z,100.00
2022-09-15T15:05:14.695Z,100.00
2022-09-15T15:07:42.402Z,100.00
2022-09-15T15:10:25.580Z,100.00
2022-09-15T15:13:00.038Z,100.00
2022-09-15T15:15:28.359Z,100.00
2022-09-15T15:17:55.088Z,100.00
2022-09-15T15:20:24.608Z,100.00
2022-09-15T15:23:24.527Z,100.00
2022-09-15T15:25:52.294Z,100.00
2022-09-15T15:28:38.724Z,100.00
2022-09-15T15:31:13.568Z,100.00
2022-09-15T15:33:47.562Z,100.00
2022-09-15T15:36:14.294Z,100.00
2022-09-15T15:38:47.257Z,100.00
2022-09-15T15:41:25.473Z,100.00
2022-09-15T15:44:07.806Z,100.00
2022-09-15T15:46:51.392Z,100.00
2022-09-15T15:49:19.246Z,100.00
2022-09-15T15:51:45.733Z,100.00
2022-09-15T15:54:12.213Z,100.00
2022-09-15T15:56:39.197Z,100.00
2022-09-15T15:59:05.925Z,100.00
2022-09-15T16:01:33.038Z,100.00
2022-09-15T16:03:59.573Z,100.00
2022-09-15T16:06:26.174Z,100.00
2022-09-15T16:08:52.753Z,100.00
2022-09-15T16:11:20.975Z,100.00
2022-09-15T16:13:48.365Z,100.00
2022-09-15T16:16:20.791Z,100.00
2022-09-15T16:18:47.592Z,100.00
2022-09-15T16:21:26.100Z,100.00
2022-09-15T16:23:52.537Z,100.00
2022-09-15T16:26:23.080Z,100.00
2022-09-15T16:28:49.883Z,100.00
2022-09-15T16:31:16.327Z,100.00
2022-09-15T16:33:45.421Z,100.00
2022-09-15T16:36:14.422Z,100.00
2022-09-15T16:38:42.258Z,100.00
2022-09-15T16:41:17.549Z,100.00
2022-09-15T16:43:45.456Z,100.00
2022-09-15T16:46:13.452Z,100.00
2022-09-15T16:48:42.046Z,100.00
2022-09-15T16:51:28.813Z,100.00
2022-09-15T16:53:57.283Z,100.00
2022-09-15T16:56:23.712Z,100.00
2022-09-15T16:58:54.792Z,100.00
2022-09-15T17:01:25.215Z,100.00
2022-09-15T17:03:51.707Z,100.00
2022-09-15T17:06:18.662Z,100.00
2022-09-15T17:08:45.357Z,100.00
2022-09-15T17:11:17.092Z,100.00
2022-09-15T17:13:44.748Z,100.00
2022-09-15T17:16:14.913Z,100.00
2022-09-15T17:18:41.764Z,100.00
2022-09-15T17:21:11.520Z,100.00
2022-09-15T17:23:40.249Z,100.00
2022-09-15T17:26:12.503Z,100.00
2022-09-15T17:28:39.611Z,100.00
2022-09-15T17:31:13.079Z,100.00
2022-09-15T17:33:40.121Z,100.00
2022-09-15T17:36:07.070Z,100.00
2022-09-15T17:38:33.965Z,100.00
2022-09-15T17:41:00.768Z,100.00
2022-09-15T17:43:29.249Z,100.00
2022-09-15T17:45:56.341Z,100.00
2022-09-15T17:48:23.637Z,100.00
2022-09-15T17:50:51.140Z,100.00
2022-09-15T17:53:22.886Z,100.00
2022-09-15T17:55:57.300Z,100.00
2022-09-15T17:58:26.570Z,100.00
2022-09-15T18:00:53.979Z,100.00
2022-09-15T18:03:27.684Z,100.00
2022-09-15T18:05:56.281Z,100.00
2022-09-15T18:08:23.138Z,100.00
2022-09-15T18:10:49.980Z,100.00
2022-09-15T18:13:23.423Z,100.00
2022-09-15T18:15:50.604Z,100.00
2022-09-15T18:18:20.911Z,100.00
2022-09-15T18:20:49.483Z,100.00
2022-09-15T18:23:21.780Z,100.00
2022-09-15T18:25:49.045Z,100.00
2022-09-15T18:28:16.619Z,100.00
2022-09-15T18:30:46.460Z,100.00
2022-09-15T18:33:19.735Z,100.00
2022-09-15T18:35:47.852Z,100.00
2022-09-15T18:38:15.027Z,100.00
2022-09-15T18:40:46.704Z,100.00
2022-09-15T18:43:13.272Z,100.00
2022-09-15T18:45:41.274Z,100.00
2022-09-15T18:48:12.012Z,100.00
2022-09-15T18:50:40.504Z,100.00
2022-09-15T18:53:07.058Z,100.00
2022-09-15T18:55:33.661Z,100.00
2022-09-15T18:58:01.151Z,100.00
2022-09-15T19:00:28.696Z,100.00
2022-09-15T19:02:59.636Z,100.00
2022-09-15T19:05:27.410Z,100.00
2022-09-15T19:07:54.129Z,100.00
2022-09-15T19:10:21.197Z,100.00
2022-09-15T19:12:47.650Z,100.00
2022-09-15T19:15:14.494Z,100.00
2022-09-15T19:17:42.450Z,100.00
2022-09-15T19:20:10.978Z,100.00
2022-09-15T19:22:37.957Z,100.00
2022-09-15T19:25:05.704Z,100.00
2022-09-15T19:27:32.207Z,100.00
2022-09-15T19:29:58.683Z,100.00
2022-09-15T19:32:25.086Z,100.00
2022-09-15T19:34:51.573Z,100.00
2022-09-15T19:37:20.325Z,100.00
2022-09-15T19:39:48.131Z,100.00
2022-09-15T19:44:42.280Z,100.00
2022-09-15T19:47:09.210Z,100.00
2022-09-15T19:49:35.707Z,100.00
2022-09-15T19:52:02.228Z,100.00
2022-09-15T19:54:30.307Z,100.00
2022-09-15T19:56:57.312Z,100.00
2022-09-15T19:59:28.683Z,100.00
2022-09-15T20:01:57.479Z,100.00
2022-09-15T20:04:24.106Z,100.00
2022-09-15T20:06:50.606Z,100.00
2022-09-15T20:09:17.658Z,100.00
2022-09-15T20:11:44.311Z,100.00
2022-09-15T20:14:10.931Z,100.00
2022-09-15T20:16:37.768Z,100.00
2022-09-15T20:19:04.946Z,100.00
2022-09-15T20:21:50.695Z,100.00
2022-09-15T20:24:18.572Z,100.00
2022-09-15T20:26:45.050Z,100.00
2022-09-15T20:29:11.613Z,100.00
2022-09-15T20:31:38.072Z,100.00
2022-09-15T20:34:05.140Z,100.00
2022-09-15T20:36:34.130Z,100.00
2022-09-15T20:39:03.266Z,100.00
2022-09-15T20:41:31.969Z,100.00
2022-09-15T20:43:58.727Z,100.00
2022-09-15T20:46:25.344Z,100.00
2022-09-15T20:48:52.426Z,100.00
2022-09-15T20:51:24.510Z,100.00
2022-09-15T20:53:53.525Z,100.00
2022-09-15T20:56:24.805Z,100.00
2022-09-15T20:58:56.575Z,100.00
2022-09-15T21:01:28.650Z,100.00
2022-09-15T21:03:55.680Z,100.00
2022-09-15T21:06:25.199Z,100.00
2022-09-15T21:08:53.412Z,100.00
2022-09-15T21:11:21.042Z,100.00
2022-09-15T21:13:48.420Z,100.00
2022-09-15T21:16:18.074Z,100.00
2022-09-15T21:18:45.499Z,100.00
2022-09-15T21:21:32.578Z,100.00
2022-09-15T21:24:04.301Z,100.00
2022-09-15T21:26:59.221Z,100.00
2022-09-15T21:29:27.600Z,100.00
2022-09-15T21:31:55.793Z,100.00
2022-09-15T21:34:23.860Z,100.00
2022-09-15T21:36:51.878Z,100.00
2022-09-15T21:39:18.385Z,100.00
2022-09-15T21:41:44.829Z,100.00
2022-09-15T21:44:11.629Z,100.00
2022-09-15T21:46:38.128Z,100.00
2022-09-15T21:49:04.560Z,100.00
2022-09-15T21:51:30.990Z,100.00
2022-09-15T21:53:59.459Z,100.00
2022-09-15T21:56:27.437Z,100.00
2022-09-15T21:58:54.581Z,100.00
2022-09-15T22:01:26.702Z,100.00
2022-09-15T22:03:54.269Z,100.00
2022-09-15T22:06:27.408Z,100.00
2022-09-15T22:08:54.711Z,100.00
2022-09-15T22:11:21.286Z,100.00
2022-09-15T22:13:47.836Z,100.00
2022-09-15T22:16:20.398Z,100.00
2022-09-15T22:18:47.710Z,100.00
2022-09-15T22:21:20.311Z,100.00
2022-09-15T22:23:48.605Z,100.00
2022-09-15T22:26:20.855Z,100.00
2022-09-15T22:28:47.933Z,100.00
2022-09-15T22:31:17.139Z,100.00
2022-09-15T22:33:43.874Z,100.00
2022-09-15T22:36:11.867Z,100.00
2022-09-15T22:38:38.839Z,100.00
2022-09-15T22:41:09.179Z,100.00
2022-09-15T22:43:36.265Z,100.00
2022-09-15T22:46:03.094Z,100.00
2022-09-15T22:48:29.640Z,100.00
2022-09-15T22:50:56.121Z,100.00
2022-09-15T22:53:23.576Z,100.00
2022-09-15T22:55:51.041Z,100.00
2022-09-15T22:58:17.609Z,100.00
2022-09-15T23:00:44.123Z,100.00
2022-09-15T23:03:11.451Z,100.00
2022-09-15T23:05:38.084Z,100.00
2022-09-15T23:08:04.636Z,100.00
2022-09-15T23:10:31.429Z,100.00
2022-09-15T23:12:59.072Z,100.00
2022-09-15T23:15:25.500Z,100.00
2022-09-15T23:17:52.211Z,100.00
2022-09-15T23:20:19.034Z,100.00
2022-09-15T23:22:45.680Z,100.00
2022-09-15T23:25:12.136Z,100.00
2022-09-15T23:27:38.559Z,100.00
2022-09-15T23:30:05.401Z,100.00
2022-09-15T23:32:31.893Z,100.00
2022-09-15T23:34:58.334Z,100.00
2022-09-15T23:37:24.824Z,100.00
2022-09-15T23:39:52.305Z,100.00
2022-09-15T23:42:19.094Z,100.00
2022-09-15T23:44:45.800Z,100.00
2022-09-15T23:47:12.239Z,100.00
2022-09-15T23:49:38.653Z,100.00
2022-09-15T23:52:05.129Z,100.00
2022-09-15T23:54:31.589Z,100.00
2022-09-15T23:56:58.061Z,100.00
2022-09-15T23:59:24.603Z,100.00
